createdAt,value
2023-05-09T00:02:12.345Z,33.80
2023-05-09T00:04:39.433Z,33.97
2023-05-09T00:07:07.540Z,34.52
2023-05-09T00:09:34.594Z,34.16
2023-05-09T00:12:02.762Z,34.10
2023-05-09T00:14:29.942Z,34.13
2023-05-09T00:16:59.485Z,34.55
2023-05-09T00:19:26.637Z,34.12
2023-05-09T00:21:54.286Z,34.34
2023-05-09T00:24:21.671Z,34.49
2023-05-09T00:26:49.042Z,34.34
2023-05-09T00:29:16.157Z,34.10
2023-05-09T00:31:43.245Z,34.04
2023-05-09T00:34:10.497Z,34.20
2023-05-09T00:36:37.619Z,34.49
2023-05-09T00:39:05.802Z,34.63
2023-05-09T00:41:32.876Z,34.27
2023-05-09T00:44:00.201Z,34.18
2023-05-09T00:46:27.230Z,34.11
2023-05-09T00:48:54.281Z,34.30
2023-05-09T00:51:21.922Z,34.53
2023-05-09T00:53:49.398Z,34.52
2023-05-09T00:56:16.653Z,34.11
2023-05-09T00:58:43.963Z,34.75
2023-05-09T01:01:11.797Z,34.50
2023-05-09T01:03:39.794Z,34.79
2023-05-09T01:06:08.586Z,34.52
2023-05-09T01:08:45.573Z,34.54
2023-05-09T01:11:29.488Z,34.58
2023-05-09T01:14:19.194Z,34.56
2023-05-09T01:16:55.236Z,34.45
2023-05-09T01:19:46.136Z,34.58
2023-05-09T01:22:13.729Z,34.62
2023-05-09T01:24:48.336Z,34.58
2023-05-09T01:27:22.811Z,34.50
2023-05-09T01:29:57.289Z,34.60
2023-05-09T01:32:28.393Z,34.71
2023-05-09T01:34:56.372Z,34.57
2023-05-09T01:37:25.493Z,34.71
2023-05-09T01:39:53.622Z,34.61
2023-05-09T01:42:20.855Z,34.66
2023-05-09T01:44:48.316Z,34.45
2023-05-09T01:47:16.722Z,34.81
2023-05-09T01:49:43.978Z,34.85
2023-05-09T01:52:13.706Z,34.56
2023-05-09T01:54:40.783Z,34.77
2023-05-09T01:57:08.037Z,35.00
2023-05-09T01:59:35.394Z,35.16
2023-05-09T02:02:03.493Z,35.33
2023-05-09T02:04:30.748Z,35.09
2023-05-09T02:06:57.773Z,35.00
2023-05-09T02:09:24.802Z,34.94
2023-05-09T02:11:52.035Z,34.81
2023-05-09T02:14:19.972Z,34.58
2023-05-09T02:16:47.047Z,34.70
2023-05-09T02:19:14.067Z,34.64
2023-05-09T02:21:41.375Z,34.99
2023-05-09T02:24:08.684Z,35.05
2023-05-09T02:26:35.997Z,35.33
2023-05-09T02:29:03.833Z,35.14
2023-05-09T02:31:30.827Z,35.11
2023-05-09T02:33:59.412Z,35.10
2023-05-09T02:36:26.854Z,35.04
2023-05-09T02:38:53.872Z,35.24
2023-05-09T02:41:21.975Z,35.35
2023-05-09T02:43:48.981Z,35.18
2023-05-09T02:46:16.414Z,35.19
2023-05-09T02:48:43.659Z,35.30
2023-05-09T02:51:10.735Z,35.04
2023-05-09T02:53:37.759Z,35.34
2023-05-09T02:56:05.097Z,35.37
2023-05-09T02:58:32.164Z,35.46
2023-05-09T03:00:59.304Z,35.20
2023-05-09T03:03:26.405Z,35.35
2023-05-09T03:05:53.724Z,35.27
2023-05-09T03:08:20.722Z,35.41
2023-05-09T03:10:47.950Z,35.57
2023-05-09T03:13:15.824Z,35.68
2023-05-09T03:15:43.157Z,35.59
2023-05-09T03:18:12.543Z,35.61
2023-05-09T03:20:40.402Z,35.45
2023-05-09T03:23:07.457Z,35.31
2023-05-09T03:25:34.870Z,35.66
2023-05-09T03:28:01.963Z,35.77
2023-05-09T03:30:29.708Z,35.91
2023-05-09T03:32:56.911Z,36.25
2023-05-09T03:35:23.998Z,36.85
2023-05-09T03:37:51.340Z,35.81
2023-05-09T03:40:18.581Z,35.52
2023-05-09T03:42:53.187Z,35.43
2023-05-09T03:45:20.558Z,35.57
2023-05-09T03:47:47.715Z,35.61
2023-05-09T03:50:15.704Z,35.50
2023-05-09T03:52:43.449Z,35.69
2023-05-09T03:55:11.289Z,35.38
2023-05-09T03:57:39.059Z,35.55
2023-05-09T04:00:08.179Z,35.45
2023-05-09T04:02:42.398Z,35.27
2023-05-09T04:05:13.677Z,35.35
2023-05-09T04:07:41.305Z,35.51
2023-05-09T04:10:09.592Z,35.25
2023-05-09T04:12:36.614Z,35.17
2023-05-09T04:15:04.126Z,35.10
2023-05-09T04:17:31.600Z,35.21
2023-05-09T04:19:58.721Z,34.79
2023-05-09T04:22:25.943Z,34.83
2023-05-09T04:24:53.667Z,34.71
2023-05-09T04:27:21.139Z,34.43
2023-05-09T04:29:49.494Z,34.18
2023-05-09T04:32:16.663Z,33.98
2023-05-09T04:34:43.829Z,34.03
2023-05-09T04:37:15.634Z,33.97
2023-05-09T04:39:43.660Z,33.97
2023-05-09T04:42:18.387Z,34.38
2023-05-09T04:44:45.515Z,34.13
2023-05-09T04:47:12.956Z,34.00
2023-05-09T04:49:40.412Z,34.02
2023-05-09T04:52:08.687Z,33.92
2023-05-09T04:54:36.180Z,33.92
2023-05-09T04:57:17.269Z,33.76
2023-05-09T04:59:46.400Z,33.49
2023-05-09T05:02:14.358Z,33.28
2023-05-09T05:04:41.962Z,33.40
2023-05-09T05:07:09.255Z,33.49
2023-05-09T05:09:36.366Z,33.20
2023-05-09T05:12:09.267Z,33.18
2023-05-09T05:14:37.806Z,32.92
2023-05-09T05:17:05.609Z,32.82
2023-05-09T05:19:32.925Z,32.78
2023-05-09T05:22:01.136Z,32.68
2023-05-09T05:24:29.483Z,32.63
2023-05-09T05:26:57.189Z,32.50
2023-05-09T05:29:25.924Z,32.33
2023-05-09T05:31:53.067Z,32.32
2023-05-09T05:34:21.167Z,32.36
2023-05-09T05:36:48.512Z,32.08
2023-05-09T05:39:16.305Z,31.94
2023-05-09T05:41:43.281Z,32.05
2023-05-09T05:44:10.585Z,31.89
2023-05-09T05:46:38.265Z,32.02
2023-05-09T05:49:05.520Z,31.90
2023-05-09T05:51:33.901Z,31.97
2023-05-09T05:54:01.277Z,31.76
2023-05-09T05:56:28.432Z,31.54
2023-05-09T06:02:22.157Z,33.41
2023-05-09T06:04:49.542Z,31.34
2023-05-09T06:07:16.446Z,32.78
2023-05-09T06:09:43.458Z,33.71
2023-05-09T06:12:11.466Z,34.02
2023-05-09T06:14:38.681Z,33.37
2023-05-09T06:17:06.079Z,31.58
2023-05-09T06:19:33.039Z,30.80
2023-05-09T06:21:59.881Z,30.84
2023-05-09T06:24:35.915Z,30.40
2023-05-09T06:27:03.990Z,30.78
2023-05-09T06:29:31.967Z,31.49
2023-05-09T06:31:58.743Z,31.09
2023-05-09T06:34:25.939Z,30.90
2023-05-09T06:36:52.937Z,31.18
2023-05-09T06:39:19.805Z,30.88
2023-05-09T06:41:47.035Z,30.77
2023-05-09T06:44:19.918Z,30.52
2023-05-09T06:46:46.839Z,30.88
2023-05-09T06:49:13.807Z,30.63
2023-05-09T06:51:40.667Z,30.84
2023-05-09T06:54:07.636Z,30.18
2023-05-09T06:56:34.814Z,29.62
2023-05-09T06:59:01.731Z,29.37
2023-05-09T07:01:29.091Z,29.45
2023-05-09T07:03:56.172Z,29.06
2023-05-09T07:06:23.287Z,28.93
2023-05-09T07:08:50.107Z,28.91
2023-05-09T07:11:17.639Z,28.81
2023-05-09T07:13:44.432Z,28.55
2023-05-09T07:16:11.531Z,28.60
2023-05-09T07:18:39.778Z,28.45
2023-05-09T07:21:07.081Z,28.56
2023-05-09T07:23:34.772Z,28.41
2023-05-09T07:26:01.791Z,28.44
2023-05-09T07:28:29.139Z,27.88
2023-05-09T07:30:56.565Z,27.81
2023-05-09T07:33:23.850Z,27.68
2023-05-09T07:35:52.429Z,27.60
2023-05-09T07:38:19.170Z,27.78
2023-05-09T07:40:46.312Z,27.80
2023-05-09T07:43:13.753Z,27.36
2023-05-09T07:45:41.952Z,26.93
2023-05-09T07:48:09.138Z,26.86
2023-05-09T07:50:36.362Z,26.48
2023-05-09T07:53:03.417Z,26.07
2023-05-09T07:55:30.434Z,26.13
2023-05-09T07:57:57.532Z,25.95
2023-05-09T08:00:24.456Z,25.50
2023-05-09T08:02:51.984Z,25.44
2023-05-09T08:05:19.825Z,25.67
2023-05-09T08:07:46.753Z,25.65
2023-05-09T08:10:13.634Z,25.75
2023-05-09T08:12:40.805Z,25.56
2023-05-09T08:15:08.294Z,25.45
2023-05-09T08:17:35.578Z,24.76
2023-05-09T08:20:05.037Z,24.75
2023-05-09T08:22:32.312Z,24.87
2023-05-09T08:24:59.239Z,23.95
2023-05-09T08:27:26.056Z,23.50
2023-05-09T08:29:53.929Z,23.75
2023-05-09T08:32:22.409Z,23.02
2023-05-09T08:34:49.152Z,23.67
2023-05-09T08:37:16.266Z,23.54
2023-05-09T08:39:43.351Z,23.78
2023-05-09T08:42:10.631Z,24.25
2023-05-09T08:44:37.916Z,24.07
2023-05-09T08:47:05.279Z,23.79
2023-05-09T08:49:32.966Z,23.72
2023-05-09T08:51:59.720Z,23.81
2023-05-09T08:54:26.796Z,23.75
2023-05-09T08:56:53.608Z,23.48
2023-05-09T08:59:23.487Z,23.53
2023-05-09T09:01:50.635Z,23.29
2023-05-09T09:04:17.460Z,23.74
2023-05-09T09:06:44.367Z,23.52
2023-05-09T09:09:11.752Z,23.40
2023-05-09T09:11:38.891Z,23.41
2023-05-09T09:14:12.544Z,23.28
2023-05-09T09:16:43.801Z,23.54
2023-05-09T09:19:13.404Z,23.30
2023-05-09T09:21:41.986Z,23.98
2023-05-09T09:24:09.268Z,23.25
2023-05-09T09:26:45.001Z,23.41
2023-05-09T09:29:12.843Z,24.10
2023-05-09T09:31:40.539Z,23.43
2023-05-09T09:34:07.323Z,22.86
2023-05-09T09:36:36.200Z,22.73
2023-05-09T09:39:04.238Z,23.13
2023-05-09T09:41:36.663Z,22.80
2023-05-09T09:44:07.822Z,22.59
2023-05-09T09:46:47.154Z,22.84
2023-05-09T09:49:15.556Z,23.08
2023-05-09T09:51:42.954Z,22.94
2023-05-09T09:54:11.036Z,23.93
2023-05-09T09:56:42.055Z,23.25
2023-05-09T09:59:10.770Z,21.84
2023-05-09T10:02:12.332Z,21.69
2023-05-09T10:04:43.459Z,21.29
2023-05-09T10:07:12.822Z,22.77
2023-05-09T10:09:43.230Z,23.52
2023-05-09T10:12:10.439Z,23.47
2023-05-09T10:14:37.986Z,24.15
2023-05-09T10:17:05.546Z,24.26
2023-05-09T10:19:32.722Z,23.67
2023-05-09T10:22:06.362Z,23.79
2023-05-09T10:24:42.101Z,23.45
2023-05-09T10:27:10.611Z,23.50
2023-05-09T10:29:40.932Z,23.12
2023-05-09T10:32:12.891Z,23.19
2023-05-09T10:34:40.612Z,22.09
2023-05-09T10:37:08.017Z,21.52
2023-05-09T10:39:36.092Z,21.25
2023-05-09T10:42:03.266Z,22.02
2023-05-09T10:44:30.215Z,23.65
2023-05-09T10:46:57.509Z,23.75
2023-05-09T10:49:24.341Z,23.18
2023-05-09T10:51:51.678Z,22.44
2023-05-09T10:54:30.743Z,21.38
2023-05-09T10:56:58.009Z,21.21
2023-05-09T10:59:46.032Z,20.88
2023-05-09T11:02:14.177Z,20.41
2023-05-09T11:04:41.001Z,20.46
2023-05-09T11:07:29.657Z,20.60
2023-05-09T11:10:10.047Z,21.00
2023-05-09T11:12:59.210Z,22.46
2023-05-09T11:15:29.561Z,23.01
2023-05-09T11:18:12.022Z,23.05
2023-05-09T11:20:42.580Z,22.18
2023-05-09T11:23:11.318Z,21.87
2023-05-09T11:25:41.169Z,21.98
2023-05-09T11:28:08.265Z,22.03
2023-05-09T11:30:43.256Z,22.13
2023-05-09T11:33:33.008Z,21.89
2023-05-09T11:36:19.666Z,22.06
2023-05-09T11:38:47.023Z,20.70
2023-05-09T11:41:14.271Z,20.56
2023-05-09T11:43:42.149Z,20.34
2023-05-09T11:46:09.563Z,20.31
2023-05-09T11:48:40.397Z,20.15
2023-05-09T11:51:07.481Z,20.24
2023-05-09T11:53:35.725Z,20.09
2023-05-09T11:56:04.044Z,20.08
2023-05-09T11:58:31.532Z,20.13
2023-05-09T12:00:58.333Z,20.29
2023-05-09T12:03:25.850Z,19.99
2023-05-09T12:05:53.988Z,20.03
2023-05-09T12:08:22.253Z,20.14
2023-05-09T12:10:49.193Z,19.93
2023-05-09T12:13:19.111Z,19.78
2023-05-09T12:15:46.195Z,20.01
2023-05-09T12:18:13.987Z,19.92
2023-05-09T12:20:46.875Z,19.77
2023-05-09T12:23:13.973Z,19.79
2023-05-09T12:26:01.047Z,19.65
2023-05-09T12:29:32.977Z,19.31
2023-05-09T12:32:00.551Z,19.45
2023-05-09T12:34:27.497Z,19.50
2023-05-09T12:36:54.525Z,19.45
2023-05-09T12:39:22.504Z,19.37
2023-05-09T12:42:00.573Z,19.13
2023-05-09T12:44:30.019Z,19.63
2023-05-09T12:46:59.069Z,19.39
2023-05-09T12:49:26.382Z,18.94
2023-05-09T12:51:54.397Z,19.30
2023-05-09T12:54:22.828Z,19.15
2023-05-09T12:56:53.481Z,19.54
2023-05-09T12:59:24.287Z,19.68
2023-05-09T13:02:01.241Z,19.27
2023-05-09T13:04:28.340Z,19.38
2023-05-09T13:06:57.000Z,19.50
2023-05-09T13:09:24.493Z,19.52
2023-05-09T13:12:23.919Z,19.49
2023-05-09T13:14:51.291Z,19.15
2023-05-09T13:17:18.251Z,19.55
2023-05-09T13:19:45.225Z,19.58
2023-05-09T13:22:12.542Z,19.45
2023-05-09T13:24:39.474Z,19.07
2023-05-09T13:27:06.647Z,19.31
2023-05-09T13:29:33.936Z,19.60
2023-05-09T13:32:00.812Z,19.53
2023-05-09T13:34:28.270Z,19.52
2023-05-09T13:36:55.413Z,19.70
2023-05-09T13:39:22.245Z,19.94
2023-05-09T13:41:52.424Z,19.86
2023-05-09T13:44:19.641Z,20.12
2023-05-09T13:46:46.624Z,20.15
2023-05-09T13:49:13.563Z,20.00
2023-05-09T13:51:40.930Z,20.04
2023-05-09T13:54:12.137Z,20.09
2023-05-09T13:56:39.495Z,20.17
2023-05-09T13:59:06.568Z,20.03
2023-05-09T14:01:33.699Z,20.13
2023-05-09T14:04:00.935Z,19.95
2023-05-09T14:06:30.898Z,19.92
2023-05-09T14:08:57.866Z,19.99
2023-05-09T14:11:25.529Z,20.03
2023-05-09T14:13:52.515Z,20.31
2023-05-09T14:16:20.569Z,20.34
2023-05-09T14:18:48.109Z,20.33
2023-05-09T14:21:15.132Z,20.29
2023-05-09T14:23:42.857Z,20.27
2023-05-09T14:26:09.888Z,20.20
2023-05-09T14:28:37.700Z,20.02
2023-05-09T14:31:04.747Z,20.07
2023-05-09T14:33:32.385Z,20.20
2023-05-09T14:36:02.148Z,20.17
2023-05-09T14:38:29.198Z,20.27
2023-05-09T14:40:56.272Z,20.07
2023-05-09T14:43:23.789Z,20.30
2023-05-09T14:45:51.090Z,20.43
2023-05-09T14:48:18.293Z,20.64
2023-05-09T14:50:45.196Z,20.69
2023-05-09T14:53:12.365Z,20.53
2023-05-09T14:55:41.231Z,20.38
2023-05-09T14:58:08.487Z,20.37
2023-05-09T15:00:36.283Z,20.80
2023-05-09T15:03:03.855Z,20.71
2023-05-09T15:05:31.250Z,20.67
2023-05-09T15:07:58.528Z,20.59
2023-05-09T15:10:27.143Z,20.86
2023-05-09T15:12:54.733Z,20.87
2023-05-09T15:15:25.335Z,20.76
2023-05-09T15:17:52.671Z,20.78
2023-05-09T15:20:20.048Z,21.03
2023-05-09T15:22:47.161Z,20.99
2023-05-09T15:25:14.406Z,21.37
2023-05-09T15:27:41.588Z,21.22
2023-05-09T15:30:09.540Z,21.14
2023-05-09T15:32:37.965Z,20.88
2023-05-09T15:35:05.690Z,20.79
2023-05-09T15:37:35.602Z,20.82
2023-05-09T15:40:03.456Z,21.17
2023-05-09T15:42:31.295Z,21.34
2023-05-09T15:44:58.393Z,21.10
2023-05-09T15:47:25.511Z,20.95
2023-05-09T15:49:52.898Z,21.11
2023-05-09T15:52:19.840Z,21.16
2023-05-09T15:54:46.846Z,21.11
2023-05-09T15:57:14.380Z,21.13
2023-05-09T15:59:41.255Z,21.20
2023-05-09T16:02:08.630Z,21.39
2023-05-09T16:04:36.169Z,21.54
2023-05-09T16:07:03.229Z,21.68
2023-05-09T16:09:30.370Z,21.94
2023-05-09T16:11:57.257Z,22.00
2023-05-09T16:14:24.348Z,22.00
2023-05-09T16:16:53.134Z,22.16
2023-05-09T16:19:21.182Z,22.12
2023-05-09T16:21:48.205Z,22.23
2023-05-09T16:24:15.462Z,22.22
2023-05-09T16:26:42.513Z,22.01
2023-05-09T16:29:09.537Z,22.17
2023-05-09T16:31:36.625Z,22.20
2023-05-09T16:34:03.861Z,22.18
2023-05-09T16:36:32.218Z,22.22
2023-05-09T16:38:59.174Z,22.28
2023-05-09T16:41:26.588Z,22.43
2023-05-09T16:43:53.480Z,22.43
2023-05-09T16:46:20.839Z,22.41
2023-05-09T16:48:50.172Z,22.71
2023-05-09T16:51:17.742Z,22.61
2023-05-09T16:53:44.949Z,22.91
2023-05-09T16:56:12.150Z,23.22
2023-05-09T16:58:39.251Z,23.14
2023-05-09T17:01:06.616Z,23.39
2023-05-09T17:03:33.760Z,23.55
2023-05-09T17:06:00.757Z,23.50
2023-05-09T17:08:27.835Z,23.68
2023-05-09T17:10:55.403Z,23.88
2023-05-09T17:13:22.836Z,24.32
2023-05-09T17:15:52.133Z,25.10
2023-05-09T17:18:33.240Z,25.10
2023-05-09T17:21:01.104Z,25.18
2023-05-09T17:23:27.943Z,24.97
2023-05-09T17:25:54.874Z,24.88
2023-05-09T17:28:21.928Z,25.10
2023-05-09T17:30:48.693Z,25.52
2023-05-09T17:33:16.076Z,25.91
2023-05-09T17:35:43.533Z,25.87
2023-05-09T17:38:10.360Z,26.19
2023-05-09T17:40:37.633Z,26.31
2023-05-09T17:43:04.480Z,26.54
2023-05-09T17:45:31.707Z,26.61
2023-05-09T17:48:00.811Z,26.45
2023-05-09T17:50:27.996Z,26.36
2023-05-09T17:52:56.847Z,26.57
2023-05-09T17:55:23.828Z,26.66
2023-05-09T17:57:51.353Z,27.12
2023-05-09T18:00:19.097Z,27.36
2023-05-09T18:02:47.427Z,27.31
2023-05-09T18:05:14.223Z,27.59
2023-05-09T18:07:41.216Z,27.50
2023-05-09T18:10:08.923Z,27.35
2023-05-09T18:12:37.305Z,27.43
2023-05-09T18:18:07.465Z,28.80
2023-05-09T18:20:34.830Z,27.45
2023-05-09T18:23:01.897Z,27.68
2023-05-09T18:25:29.380Z,27.55
2023-05-09T18:27:56.864Z,27.70
2023-05-09T18:30:23.834Z,28.05
2023-05-09T18:32:51.355Z,28.02
2023-05-09T18:35:18.474Z,27.67
2023-05-09T18:37:45.577Z,28.06
2023-05-09T18:40:15.813Z,28.09
2023-05-09T18:42:49.890Z,28.25
2023-05-09T18:45:17.301Z,28.36
2023-05-09T18:47:44.573Z,28.55
2023-05-09T18:50:13.868Z,28.83
2023-05-09T18:52:41.140Z,28.71
2023-05-09T18:55:08.746Z,28.81
2023-05-09T18:57:36.114Z,28.65
2023-05-09T19:00:03.773Z,28.80
2023-05-09T19:02:30.875Z,28.83
2023-05-09T19:04:57.951Z,28.61
2023-05-09T19:07:25.025Z,28.70
2023-05-09T19:09:52.573Z,28.57
2023-05-09T19:12:19.558Z,28.81
2023-05-09T19:14:46.738Z,28.72
2023-05-09T19:17:13.919Z,28.46
2023-05-09T19:19:41.070Z,28.69
2023-05-09T19:22:08.321Z,28.60
2023-05-09T19:24:35.373Z,28.61
2023-05-09T19:27:02.578Z,28.49
2023-05-09T19:29:29.824Z,28.66
2023-05-09T19:31:56.826Z,29.19
2023-05-09T19:34:24.115Z,29.32
2023-05-09T19:36:51.487Z,29.21
2023-05-09T19:39:18.721Z,29.38
2023-05-09T19:41:46.484Z,29.48
2023-05-09T19:44:13.740Z,29.57
2023-05-09T19:46:43.153Z,29.70
2023-05-09T19:49:10.655Z,29.83
2023-05-09T19:51:37.871Z,30.01
2023-05-09T19:54:05.271Z,29.90
2023-05-09T19:56:32.321Z,30.04
2023-05-09T19:58:59.651Z,29.94
2023-05-09T20:01:26.717Z,30.10
2023-05-09T20:03:53.973Z,30.17
2023-05-09T20:09:06.791Z,30.90
2023-05-09T20:11:34.022Z,30.57
2023-05-09T20:14:01.309Z,30.86
2023-05-09T20:16:28.676Z,30.76
2023-05-09T20:18:55.807Z,30.80
2023-05-09T20:21:22.934Z,30.74
2023-05-09T20:23:50.138Z,30.31
2023-05-09T20:26:17.202Z,30.20
2023-05-09T20:28:44.255Z,30.47
2023-05-09T20:31:11.877Z,30.41
2023-05-09T20:33:40.209Z,30.58
2023-05-09T20:36:09.590Z,30.60
2023-05-09T20:38:36.587Z,30.81
2023-05-09T20:41:04.278Z,30.78
2023-05-09T20:43:31.460Z,30.88
2023-05-09T20:45:58.768Z,30.87
2023-05-09T20:48:26.093Z,30.79
2023-05-09T20:50:53.049Z,30.91
2023-05-09T20:53:20.293Z,31.12
2023-05-09T20:55:49.554Z,31.39
2023-05-09T20:58:17.620Z,31.63
2023-05-09T21:00:47.229Z,31.59
2023-05-09T21:03:14.548Z,31.83
2023-05-09T21:05:41.640Z,31.87
2023-05-09T21:08:08.718Z,31.94
2023-05-09T21:10:35.970Z,31.58
2023-05-09T21:13:04.534Z,31.82
2023-05-09T21:15:31.558Z,31.62
2023-05-09T21:17:58.854Z,32.12
2023-05-09T21:20:26.418Z,31.84
2023-05-09T21:22:53.701Z,31.93
2023-05-09T21:25:20.952Z,32.23
2023-05-09T21:27:47.924Z,32.34
2023-05-09T21:30:15.000Z,32.30
2023-05-09T21:32:42.207Z,32.36
2023-05-09T21:35:12.800Z,32.38
2023-05-09T21:37:39.965Z,32.29
2023-05-09T21:40:07.986Z,32.33
2023-05-09T21:42:36.141Z,32.25
2023-05-09T21:45:03.909Z,32.52
2023-05-09T21:47:31.445Z,32.73
2023-05-09T21:49:58.641Z,32.98
2023-05-09T21:52:25.594Z,33.23
2023-05-09T21:54:52.667Z,33.01
2023-05-09T21:57:19.638Z,32.91
2023-05-09T21:59:46.714Z,33.18
2023-05-09T22:02:14.587Z,32.75
2023-05-09T22:04:41.633Z,33.11
2023-05-09T22:07:08.712Z,33.64
2023-05-09T22:09:35.690Z,32.94
2023-05-09T22:12:02.839Z,32.90
2023-05-09T22:14:29.779Z,32.96
2023-05-09T22:16:56.704Z,33.04
2023-05-09T22:19:23.704Z,33.01
2023-05-09T22:21:50.856Z,32.82
2023-05-09T22:24:18.186Z,32.92
2023-05-09T22:26:45.192Z,33.06
2023-05-09T22:29:12.258Z,33.01
2023-05-09T22:31:39.370Z,33.20
2023-05-09T22:34:06.384Z,33.13
2023-05-09T22:36:33.646Z,33.01
2023-05-09T22:39:00.705Z,32.84
2023-05-09T22:41:27.714Z,33.10
2023-05-09T22:43:55.045Z,33.20
2023-05-09T22:46:22.842Z,33.09
2023-05-09T22:48:50.040Z,33.20
2023-05-09T22:51:17.070Z,33.18
2023-05-09T22:53:44.217Z,33.17
2023-05-09T22:56:11.706Z,33.07
2023-05-09T22:58:38.676Z,33.04
2023-05-09T23:01:06.236Z,33.23
2023-05-09T23:03:33.302Z,33.06
2023-05-09T23:06:00.294Z,33.26
2023-05-09T23:08:27.365Z,33.15
2023-05-09T23:10:54.322Z,33.26
2023-05-09T23:13:21.599Z,33.48
2023-05-09T23:15:48.710Z,33.17
2023-05-09T23:18:15.940Z,33.26
2023-05-09T23:20:42.999Z,33.46
2023-05-09T23:23:10.334Z,33.62
2023-05-09T23:25:38.971Z,33.66
2023-05-09T23:28:05.868Z,33.77
2023-05-09T23:30:32.887Z,33.96
2023-05-09T23:32:59.895Z,33.80
2023-05-09T23:35:26.968Z,33.91
2023-05-09T23:37:54.126Z,33.91
2023-05-09T23:40:21.430Z,33.73
2023-05-09T23:42:48.496Z,33.90
2023-05-09T23:45:15.497Z,33.84
2023-05-09T23:47:42.743Z,33.96
2023-05-09T23:50:10.809Z,34.08
2023-05-09T23:52:37.792Z,33.89
2023-05-09T23:55:05.462Z,33.71
2023-05-09T23:57:32.612Z,33.54
2023-05-09T23:59:59.811Z,33.86
